sensor_id;sensor_type;location;lat;lon;timestamp;P1;durP1;ratioP1;P2;durP2;ratioP2
15629;SDS011;7914;50.842;0.166;2023-09-19T00:00:22;8.55;;;1.40;;
15629;SDS011;7914;50.842;0.166;2023-09-19T00:02:57;12.48;;;2.33;;
15629;SDS011;7914;50.842;0.166;2023-09-19T00:05:26;7.90;;;1.58;;
15629;SDS011;7914;50.842;0.166;2023-09-19T00:07:53;8.88;;;2.20;;
15629;SDS011;7914;50.842;0.166;2023-09-19T00:10:24;9.15;;;2.78;;
15629;SDS011;7914;50.842;0.166;2023-09-19T00:12:54;11.18;;;2.13;;
15629;SDS011;7914;50.842;0.166;2023-09-19T00:15:20;10.57;;;2.25;;
15629;SDS011;7914;50.842;0.166;2023-09-19T00:17:47;5.82;;;1.75;;
15629;SDS011;7914;50.842;0.166;2023-09-19T00:20:13;8.48;;;1.73;;
15629;SDS011;7914;50.842;0.166;2023-09-19T00:22:42;11.77;;;2.35;;
15629;SDS011;7914;50.842;0.166;2023-09-19T00:25:08;9.32;;;2.03;;
15629;SDS011;7914;50.842;0.166;2023-09-19T00:27:35;11.30;;;1.80;;
15629;SDS011;7914;50.842;0.166;2023-09-19T00:30:06;13.38;;;2.30;;
15629;SDS011;7914;50.842;0.166;2023-09-19T00:32:40;7.55;;;1.92;;
15629;SDS011;7914;50.842;0.166;2023-09-19T00:35:06;12.77;;;2.38;;
15629;SDS011;7914;50.842;0.166;2023-09-19T00:37:34;9.38;;;2.08;;
15629;SDS011;7914;50.842;0.166;2023-09-19T00:40:01;11.48;;;1.60;;
15629;SDS011;7914;50.842;0.166;2023-09-19T00:42:28;13.70;;;2.63;;
15629;SDS011;7914;50.842;0.166;2023-09-19T00:44:53;8.27;;;1.63;;
15629;SDS011;7914;50.842;0.166;2023-09-19T00:47:19;10.38;;;2.22;;
15629;SDS011;7914;50.842;0.166;2023-09-19T00:49:45;11.02;;;2.47;;
15629;SDS011;7914;50.842;0.166;2023-09-19T00:52:14;15.10;;;2.20;;
15629;SDS011;7914;50.842;0.166;2023-09-19T00:54:41;14.40;;;2.53;;
15629;SDS011;7914;50.842;0.166;2023-09-19T00:57:06;8.02;;;1.48;;
15629;SDS011;7914;50.842;0.166;2023-09-19T00:59:34;10.88;;;2.15;;
15629;SDS011;7914;50.842;0.166;2023-09-19T01:02:01;10.65;;;1.80;;
15629;SDS011;7914;50.842;0.166;2023-09-19T01:04:28;14.13;;;2.60;;
15629;SDS011;7914;50.842;0.166;2023-09-19T01:06:54;15.68;;;2.15;;
15629;SDS011;7914;50.842;0.166;2023-09-19T01:09:20;11.52;;;2.58;;
15629;SDS011;7914;50.842;0.166;2023-09-19T01:11:47;10.10;;;2.05;;
15629;SDS011;7914;50.842;0.166;2023-09-19T01:14:19;10.13;;;2.10;;
15629;SDS011;7914;50.842;0.166;2023-09-19T01:16:56;11.32;;;1.98;;
15629;SDS011;7914;50.842;0.166;2023-09-19T01:22:25;13.95;;;2.30;;
15629;SDS011;7914;50.842;0.166;2023-09-19T01:25:20;18.98;;;3.15;;
15629;SDS011;7914;50.842;0.166;2023-09-19T01:30:45;16.65;;;2.38;;
15629;SDS011;7914;50.842;0.166;2023-09-19T01:33:12;11.18;;;1.85;;
15629;SDS011;7914;50.842;0.166;2023-09-19T01:35:39;7.63;;;1.70;;
15629;SDS011;7914;50.842;0.166;2023-09-19T01:38:06;11.18;;;2.50;;
15629;SDS011;7914;50.842;0.166;2023-09-19T01:40:34;10.63;;;1.95;;
15629;SDS011;7914;50.842;0.166;2023-09-19T01:43:20;9.70;;;1.80;;
15629;SDS011;7914;50.842;0.166;2023-09-19T01:45:59;14.68;;;2.33;;
15629;SDS011;7914;50.842;0.166;2023-09-19T01:51:59;10.57;;;1.73;;
15629;SDS011;7914;50.842;0.166;2023-09-19T01:54:40;17.02;;;3.03;;
15629;SDS011;7914;50.842;0.166;2023-09-19T01:57:32;10.68;;;2.38;;
15629;SDS011;7914;50.842;0.166;2023-09-19T02:00:06;13.23;;;1.98;;
15629;SDS011;7914;50.842;0.166;2023-09-19T02:02:35;10.35;;;2.70;;
15629;SDS011;7914;50.842;0.166;2023-09-19T02:05:02;11.20;;;1.80;;
15629;SDS011;7914;50.842;0.166;2023-09-19T02:07:29;10.48;;;2.03;;
15629;SDS011;7914;50.842;0.166;2023-09-19T02:09:59;8.52;;;1.70;;
15629;SDS011;7914;50.842;0.166;2023-09-19T02:12:25;10.70;;;2.20;;
15629;SDS011;7914;50.842;0.166;2023-09-19T02:14:52;11.52;;;1.88;;
15629;SDS011;7914;50.842;0.166;2023-09-19T02:17:18;13.80;;;2.10;;
15629;SDS011;7914;50.842;0.166;2023-09-19T02:19:44;11.40;;;1.52;;
15629;SDS011;7914;50.842;0.166;2023-09-19T02:22:10;10.98;;;2.05;;
15629;SDS011;7914;50.842;0.166;2023-09-19T02:24:36;14.80;;;2.20;;
15629;SDS011;7914;50.842;0.166;2023-09-19T02:27:03;8.88;;;2.15;;
15629;SDS011;7914;50.842;0.166;2023-09-19T02:29:30;10.40;;;1.98;;
15629;SDS011;7914;50.842;0.166;2023-09-19T02:31:56;12.82;;;2.25;;
15629;SDS011;7914;50.842;0.166;2023-09-19T02:34:22;12.27;;;1.90;;
15629;SDS011;7914;50.842;0.166;2023-09-19T02:36:48;13.98;;;2.50;;
15629;SDS011;7914;50.842;0.166;2023-09-19T02:39:14;14.48;;;2.08;;
15629;SDS011;7914;50.842;0.166;2023-09-19T02:41:39;8.13;;;1.67;;
15629;SDS011;7914;50.842;0.166;2023-09-19T02:44:07;11.60;;;2.25;;
15629;SDS011;7914;50.842;0.166;2023-09-19T02:46:36;16.02;;;2.17;;
15629;SDS011;7914;50.842;0.166;2023-09-19T02:49:02;15.27;;;2.17;;
15629;SDS011;7914;50.842;0.166;2023-09-19T02:51:31;13.48;;;1.85;;
15629;SDS011;7914;50.842;0.166;2023-09-19T02:53:58;12.45;;;2.65;;
15629;SDS011;7914;50.842;0.166;2023-09-19T02:56:25;9.68;;;2.28;;
15629;SDS011;7914;50.842;0.166;2023-09-19T02:58:50;20.13;;;2.35;;
15629;SDS011;7914;50.842;0.166;2023-09-19T03:01:16;14.98;;;2.10;;
15629;SDS011;7914;50.842;0.166;2023-09-19T03:03:43;13.23;;;3.53;;
15629;SDS011;7914;50.842;0.166;2023-09-19T03:06:10;11.77;;;2.28;;
15629;SDS011;7914;50.842;0.166;2023-09-19T03:08:38;13.55;;;2.45;;
15629;SDS011;7914;50.842;0.166;2023-09-19T03:11:04;15.07;;;2.58;;
15629;SDS011;7914;50.842;0.166;2023-09-19T03:13:31;9.45;;;2.35;;
15629;SDS011;7914;50.842;0.166;2023-09-19T03:15:57;13.98;;;2.95;;
15629;SDS011;7914;50.842;0.166;2023-09-19T03:18:24;9.60;;;2.28;;
15629;SDS011;7914;50.842;0.166;2023-09-19T03:20:55;14.95;;;2.33;;
15629;SDS011;7914;50.842;0.166;2023-09-19T03:23:21;9.68;;;2.13;;
15629;SDS011;7914;50.842;0.166;2023-09-19T03:25:47;13.35;;;2.10;;
15629;SDS011;7914;50.842;0.166;2023-09-19T03:28:13;9.82;;;1.73;;
15629;SDS011;7914;50.842;0.166;2023-09-19T03:30:40;12.35;;;2.05;;
15629;SDS011;7914;50.842;0.166;2023-09-19T03:33:06;13.30;;;2.72;;
15629;SDS011;7914;50.842;0.166;2023-09-19T03:35:32;13.63;;;2.28;;
15629;SDS011;7914;50.842;0.166;2023-09-19T03:37:57;15.23;;;2.22;;
15629;SDS011;7914;50.842;0.166;2023-09-19T03:40:23;9.68;;;2.35;;
15629;SDS011;7914;50.842;0.166;2023-09-19T03:42:50;9.30;;;1.65;;
15629;SDS011;7914;50.842;0.166;2023-09-19T03:45:16;17.08;;;2.95;;
15629;SDS011;7914;50.842;0.166;2023-09-19T03:47:43;11.00;;;2.20;;
15629;SDS011;7914;50.842;0.166;2023-09-19T03:50:09;11.75;;;1.90;;
15629;SDS011;7914;50.842;0.166;2023-09-19T03:52:40;15.25;;;2.47;;
15629;SDS011;7914;50.842;0.166;2023-09-19T03:55:06;15.80;;;2.80;;
15629;SDS011;7914;50.842;0.166;2023-09-19T03:57:32;11.60;;;2.05;;
15629;SDS011;7914;50.842;0.166;2023-09-19T03:59:57;10.70;;;2.22;;
15629;SDS011;7914;50.842;0.166;2023-09-19T04:02:23;10.75;;;1.80;;
15629;SDS011;7914;50.842;0.166;2023-09-19T04:04:50;11.43;;;2.10;;
15629;SDS011;7914;50.842;0.166;2023-09-19T04:07:17;12.50;;;1.73;;
15629;SDS011;7914;50.842;0.166;2023-09-19T04:09:47;10.98;;;1.80;;
15629;SDS011;7914;50.842;0.166;2023-09-19T04:12:14;7.97;;;1.42;;
15629;SDS011;7914;50.842;0.166;2023-09-19T04:14:42;11.13;;;2.25;;
15629;SDS011;7914;50.842;0.166;2023-09-19T04:17:08;11.30;;;2.65;;
15629;SDS011;7914;50.842;0.166;2023-09-19T04:19:34;11.00;;;2.30;;
15629;SDS011;7914;50.842;0.166;2023-09-19T04:22:00;14.95;;;2.20;;
15629;SDS011;7914;50.842;0.166;2023-09-19T04:24:26;8.23;;;1.83;;
15629;SDS011;7914;50.842;0.166;2023-09-19T04:26:52;8.68;;;1.55;;
15629;SDS011;7914;50.842;0.166;2023-09-19T04:29:18;12.23;;;1.52;;
15629;SDS011;7914;50.842;0.166;2023-09-19T04:31:44;9.40;;;1.77;;
15629;SDS011;7914;50.842;0.166;2023-09-19T04:34:11;12.00;;;1.55;;
15629;SDS011;7914;50.842;0.166;2023-09-19T04:36:42;9.40;;;1.98;;
15629;SDS011;7914;50.842;0.166;2023-09-19T04:39:08;7.05;;;1.40;;
15629;SDS011;7914;50.842;0.166;2023-09-19T04:41:36;8.88;;;1.60;;
15629;SDS011;7914;50.842;0.166;2023-09-19T04:44:05;11.27;;;1.60;;
15629;SDS011;7914;50.842;0.166;2023-09-19T04:46:30;7.20;;;1.30;;
15629;SDS011;7914;50.842;0.166;2023-09-19T04:48:56;7.25;;;1.45;;
15629;SDS011;7914;50.842;0.166;2023-09-19T04:51:22;4.50;;;1.48;;
15629;SDS011;7914;50.842;0.166;2023-09-19T04:53:48;12.23;;;1.90;;
15629;SDS011;7914;50.842;0.166;2023-09-19T04:56:14;8.95;;;1.58;;
15629;SDS011;7914;50.842;0.166;2023-09-19T04:58:40;7.40;;;1.48;;
15629;SDS011;7914;50.842;0.166;2023-09-19T05:01:05;9.65;;;2.17;;
15629;SDS011;7914;50.842;0.166;2023-09-19T05:03:36;8.98;;;1.60;;
15629;SDS011;7914;50.842;0.166;2023-09-19T05:06:03;9.05;;;1.77;;
15629;SDS011;7914;50.842;0.166;2023-09-19T05:08:30;8.57;;;2.22;;
15629;SDS011;7914;50.842;0.166;2023-09-19T05:10:56;8.88;;;1.73;;
15629;SDS011;7914;50.842;0.166;2023-09-19T05:13:21;10.88;;;2.15;;
15629;SDS011;7914;50.842;0.166;2023-09-19T05:15:50;8.48;;;1.55;;
15629;SDS011;7914;50.842;0.166;2023-09-19T05:18:16;13.02;;;1.60;;
15629;SDS011;7914;50.842;0.166;2023-09-19T05:20:42;10.07;;;1.65;;
15629;SDS011;7914;50.842;0.166;2023-09-19T05:23:08;5.78;;;1.50;;
15629;SDS011;7914;50.842;0.166;2023-09-19T05:25:37;8.32;;;1.77;;
15629;SDS011;7914;50.842;0.166;2023-09-19T05:28:08;8.88;;;1.40;;
15629;SDS011;7914;50.842;0.166;2023-09-19T05:30:37;14.25;;;1.70;;
15629;SDS011;7914;50.842;0.166;2023-09-19T05:33:04;8.07;;;2.00;;
15629;SDS011;7914;50.842;0.166;2023-09-19T05:35:30;8.27;;;1.50;;
15629;SDS011;7914;50.842;0.166;2023-09-19T05:37:56;9.63;;;1.27;;
15629;SDS011;7914;50.842;0.166;2023-09-19T05:40:23;8.23;;;2.50;;
15629;SDS011;7914;50.842;0.166;2023-09-19T05:42:49;11.77;;;1.70;;
15629;SDS011;7914;50.842;0.166;2023-09-19T05:45:18;12.63;;;1.90;;
15629;SDS011;7914;50.842;0.166;2023-09-19T05:47:47;11.43;;;1.95;;
15629;SDS011;7914;50.842;0.166;2023-09-19T05:50:15;14.95;;;2.22;;
15629;SDS011;7914;50.842;0.166;2023-09-19T05:52:41;11.55;;;2.50;;
15629;SDS011;7914;50.842;0.166;2023-09-19T05:55:09;8.82;;;1.55;;
15629;SDS011;7914;50.842;0.166;2023-09-19T05:57:36;7.13;;;1.58;;
15629;SDS011;7914;50.842;0.166;2023-09-19T06:02:34;8.07;;;1.60;;
15629;SDS011;7914;50.842;0.166;2023-09-19T06:05:00;8.00;;;2.42;;
15629;SDS011;7914;50.842;0.166;2023-09-19T06:07:26;10.80;;;2.22;;
15629;SDS011;7914;50.842;0.166;2023-09-19T06:10:01;9.55;;;1.98;;
15629;SDS011;7914;50.842;0.166;2023-09-19T06:12:30;13.07;;;4.97;;
15629;SDS011;7914;50.842;0.166;2023-09-19T06:14:58;9.40;;;2.00;;
15629;SDS011;7914;50.842;0.166;2023-09-19T06:17:24;13.60;;;2.47;;
15629;SDS011;7914;50.842;0.166;2023-09-19T06:19:52;7.90;;;1.75;;
15629;SDS011;7914;50.842;0.166;2023-09-19T06:22:17;10.45;;;2.20;;
15629;SDS011;7914;50.842;0.166;2023-09-19T06:24:44;10.15;;;2.22;;
15629;SDS011;7914;50.842;0.166;2023-09-19T06:27:10;16.48;;;2.35;;
15629;SDS011;7914;50.842;0.166;2023-09-19T06:29:36;10.20;;;2.28;;
15629;SDS011;7914;50.842;0.166;2023-09-19T06:32:06;16.42;;;3.08;;
15629;SDS011;7914;50.842;0.166;2023-09-19T06:34:36;19.85;;;3.30;;
15629;SDS011;7914;50.842;0.166;2023-09-19T06:37:03;12.70;;;2.88;;
15629;SDS011;7914;50.842;0.166;2023-09-19T06:39:31;16.17;;;3.22;;
15629;SDS011;7914;50.842;0.166;2023-09-19T06:41:57;16.73;;;2.17;;
15629;SDS011;7914;50.842;0.166;2023-09-19T06:44:23;11.48;;;2.30;;
15629;SDS011;7914;50.842;0.166;2023-09-19T06:46:50;16.08;;;2.50;;
15629;SDS011;7914;50.842;0.166;2023-09-19T06:49:17;15.05;;;2.47;;
15629;SDS011;7914;50.842;0.166;2023-09-19T06:51:43;18.52;;;3.10;;
15629;SDS011;7914;50.842;0.166;2023-09-19T06:54:09;15.60;;;2.97;;
15629;SDS011;7914;50.842;0.166;2023-09-19T06:56:35;10.55;;;2.75;;
15629;SDS011;7914;50.842;0.166;2023-09-19T06:59:01;14.88;;;2.50;;
15629;SDS011;7914;50.842;0.166;2023-09-19T07:01:28;14.13;;;2.67;;
15629;SDS011;7914;50.842;0.166;2023-09-19T07:03:54;14.00;;;2.85;;
15629;SDS011;7914;50.842;0.166;2023-09-19T07:06:20;9.18;;;2.17;;
15629;SDS011;7914;50.842;0.166;2023-09-19T07:08:46;8.25;;;2.10;;
15629;SDS011;7914;50.842;0.166;2023-09-19T07:11:11;10.50;;;2.30;;
15629;SDS011;7914;50.842;0.166;2023-09-19T07:13:37;8.70;;;1.75;;
15629;SDS011;7914;50.842;0.166;2023-09-19T07:16:04;13.55;;;2.30;;
15629;SDS011;7914;50.842;0.166;2023-09-19T07:18:30;10.95;;;1.90;;
15629;SDS011;7914;50.842;0.166;2023-09-19T07:20:57;15.10;;;2.78;;
15629;SDS011;7914;50.842;0.166;2023-09-19T07:23:30;12.18;;;2.55;;
15629;SDS011;7914;50.842;0.166;2023-09-19T07:26:00;25.75;;;2.97;;
15629;SDS011;7914;50.842;0.166;2023-09-19T07:28:26;22.35;;;3.00;;
15629;SDS011;7914;50.842;0.166;2023-09-19T07:30:53;15.20;;;2.63;;
15629;SDS011;7914;50.842;0.166;2023-09-19T07:33:19;9.73;;;2.38;;
15629;SDS011;7914;50.842;0.166;2023-09-19T07:35:45;15.90;;;2.75;;
15629;SDS011;7914;50.842;0.166;2023-09-19T07:38:12;20.20;;;2.65;;
15629;SDS011;7914;50.842;0.166;2023-09-19T07:40:37;10.68;;;2.22;;
15629;SDS011;7914;50.842;0.166;2023-09-19T07:43:03;14.45;;;2.95;;
15629;SDS011;7914;50.842;0.166;2023-09-19T07:45:30;11.63;;;2.53;;
15629;SDS011;7914;50.842;0.166;2023-09-19T07:47:56;9.95;;;2.78;;
15629;SDS011;7914;50.842;0.166;2023-09-19T07:50:22;12.20;;;4.35;;
15629;SDS011;7914;50.842;0.166;2023-09-19T07:52:48;14.45;;;3.00;;
15629;SDS011;7914;50.842;0.166;2023-09-19T07:55:18;13.90;;;2.80;;
15629;SDS011;7914;50.842;0.166;2023-09-19T07:57:48;12.65;;;2.65;;
15629;SDS011;7914;50.842;0.166;2023-09-19T08:00:14;16.52;;;3.33;;
15629;SDS011;7914;50.842;0.166;2023-09-19T08:02:40;12.85;;;2.53;;
15629;SDS011;7914;50.842;0.166;2023-09-19T08:05:07;9.02;;;2.17;;
15629;SDS011;7914;50.842;0.166;2023-09-19T08:07:40;10.45;;;2.40;;
15629;SDS011;7914;50.842;0.166;2023-09-19T08:10:07;13.60;;;2.92;;
15629;SDS011;7914;50.842;0.166;2023-09-19T08:12:38;13.80;;;2.95;;
15629;SDS011;7914;50.842;0.166;2023-09-19T08:15:11;16.63;;;2.33;;
15629;SDS011;7914;50.842;0.166;2023-09-19T08:17:41;14.48;;;3.00;;
15629;SDS011;7914;50.842;0.166;2023-09-19T08:20:07;12.65;;;3.08;;
15629;SDS011;7914;50.842;0.166;2023-09-19T08:22:42;13.73;;;2.88;;
15629;SDS011;7914;50.842;0.166;2023-09-19T08:25:18;10.43;;;2.75;;
15629;SDS011;7914;50.842;0.166;2023-09-19T08:27:47;20.55;;;3.40;;
15629;SDS011;7914;50.842;0.166;2023-09-19T08:30:21;17.63;;;3.65;;
15629;SDS011;7914;50.842;0.166;2023-09-19T08:32:58;13.98;;;3.20;;
15629;SDS011;7914;50.842;0.166;2023-09-19T08:35:25;14.05;;;2.95;;
15629;SDS011;7914;50.842;0.166;2023-09-19T08:37:51;14.35;;;3.58;;
15629;SDS011;7914;50.842;0.166;2023-09-19T08:40:17;15.10;;;3.47;;
15629;SDS011;7914;50.842;0.166;2023-09-19T08:42:49;16.80;;;3.10;;
15629;SDS011;7914;50.842;0.166;2023-09-19T08:45:22;13.90;;;3.28;;
15629;SDS011;7914;50.842;0.166;2023-09-19T08:48:38;14.50;;;2.75;;
15629;SDS011;7914;50.842;0.166;2023-09-19T08:51:03;15.32;;;3.67;;
15629;SDS011;7914;50.842;0.166;2023-09-19T08:56:18;10.65;;;2.30;;
15629;SDS011;7914;50.842;0.166;2023-09-19T08:58:51;10.48;;;2.25;;
15629;SDS011;7914;50.842;0.166;2023-09-19T09:01:21;13.80;;;3.40;;
15629;SDS011;7914;50.842;0.166;2023-09-19T09:03:51;16.88;;;3.00;;
15629;SDS011;7914;50.842;0.166;2023-09-19T09:06:18;16.33;;;3.35;;
15629;SDS011;7914;50.842;0.166;2023-09-19T09:08:46;20.98;;;3.72;;
15629;SDS011;7914;50.842;0.166;2023-09-19T09:11:12;20.40;;;3.60;;
15629;SDS011;7914;50.842;0.166;2023-09-19T09:13:39;15.20;;;3.80;;
15629;SDS011;7914;50.842;0.166;2023-09-19T09:16:06;14.65;;;3.45;;
15629;SDS011;7914;50.842;0.166;2023-09-19T09:18:32;19.38;;;3.67;;
15629;SDS011;7914;50.842;0.166;2023-09-19T09:20:58;15.52;;;2.95;;
15629;SDS011;7914;50.842;0.166;2023-09-19T09:23:25;17.25;;;4.03;;
15629;SDS011;7914;50.842;0.166;2023-09-19T09:25:54;20.60;;;4.90;;
15629;SDS011;7914;50.842;0.166;2023-09-19T09:28:34;18.38;;;2.65;;
15629;SDS011;7914;50.842;0.166;2023-09-19T09:31:04;15.10;;;3.55;;
15629;SDS011;7914;50.842;0.166;2023-09-19T09:33:39;14.20;;;3.25;;
15629;SDS011;7914;50.842;0.166;2023-09-19T09:36:06;15.95;;;3.67;;
15629;SDS011;7914;50.842;0.166;2023-09-19T09:38:43;19.45;;;3.33;;
15629;SDS011;7914;50.842;0.166;2023-09-19T09:41:11;14.55;;;3.53;;
15629;SDS011;7914;50.842;0.166;2023-09-19T09:43:41;13.35;;;2.88;;
15629;SDS011;7914;50.842;0.166;2023-09-19T09:46:12;21.90;;;3.33;;
15629;SDS011;7914;50.842;0.166;2023-09-19T09:55:02;20.10;;;4.53;;
15629;SDS011;7914;50.842;0.166;2023-09-19T09:57:33;18.83;;;3.88;;
15629;SDS011;7914;50.842;0.166;2023-09-19T09:59:59;15.98;;;3.88;;
15629;SDS011;7914;50.842;0.166;2023-09-19T10:02:45;17.80;;;3.38;;
15629;SDS011;7914;50.842;0.166;2023-09-19T10:08:10;20.90;;;3.88;;
15629;SDS011;7914;50.842;0.166;2023-09-19T10:10:38;19.98;;;3.17;;
15629;SDS011;7914;50.842;0.166;2023-09-19T10:13:11;26.00;;;4.22;;
15629;SDS011;7914;50.842;0.166;2023-09-19T10:15:42;24.30;;;4.15;;
15629;SDS011;7914;50.842;0.166;2023-09-19T10:18:17;14.32;;;3.50;;
15629;SDS011;7914;50.842;0.166;2023-09-19T10:20:46;16.50;;;3.80;;
15629;SDS011;7914;50.842;0.166;2023-09-19T10:23:14;14.90;;;3.67;;
15629;SDS011;7914;50.842;0.166;2023-09-19T10:25:47;19.08;;;3.50;;
15629;SDS011;7914;50.842;0.166;2023-09-19T10:28:15;15.43;;;3.22;;
15629;SDS011;7914;50.842;0.166;2023-09-19T10:30:47;24.80;;;4.47;;
15629;SDS011;7914;50.842;0.166;2023-09-19T10:33:15;19.33;;;4.00;;
15629;SDS011;7914;50.842;0.166;2023-09-19T10:38:10;15.50;;;4.15;;
15629;SDS011;7914;50.842;0.166;2023-09-19T10:40:36;28.42;;;5.50;;
15629;SDS011;7914;50.842;0.166;2023-09-19T10:43:08;16.73;;;3.55;;
15629;SDS011;7914;50.842;0.166;2023-09-19T10:45:48;15.95;;;3.50;;
15629;SDS011;7914;50.842;0.166;2023-09-19T10:48:18;14.25;;;3.47;;
15629;SDS011;7914;50.842;0.166;2023-09-19T10:53:31;17.65;;;3.63;;
15629;SDS011;7914;50.842;0.166;2023-09-19T10:56:18;16.83;;;4.35;;
15629;SDS011;7914;50.842;0.166;2023-09-19T10:58:48;21.20;;;4.03;;
15629;SDS011;7914;50.842;0.166;2023-09-19T11:01:14;18.85;;;4.88;;
15629;SDS011;7914;50.842;0.166;2023-09-19T11:03:41;22.13;;;3.95;;
15629;SDS011;7914;50.842;0.166;2023-09-19T11:06:17;19.60;;;4.93;;
15629;SDS011;7914;50.842;0.166;2023-09-19T11:08:54;22.75;;;4.00;;
15629;SDS011;7914;50.842;0.166;2023-09-19T11:14:15;16.13;;;3.78;;
15629;SDS011;7914;50.842;0.166;2023-09-19T11:30:32;15.98;;;4.32;;
15629;SDS011;7914;50.842;0.166;2023-09-19T11:36:02;17.63;;;4.40;;
15629;SDS011;7914;50.842;0.166;2023-09-19T11:41:52;26.60;;;4.80;;
15629;SDS011;7914;50.842;0.166;2023-09-19T11:46:31;29.48;;;6.00;;
15629;SDS011;7914;50.842;0.166;2023-09-19T11:49:05;22.27;;;4.28;;
15629;SDS011;7914;50.842;0.166;2023-09-19T11:51:41;21.70;;;4.78;;
15629;SDS011;7914;50.842;0.166;2023-09-19T11:54:12;22.55;;;4.32;;
15629;SDS011;7914;50.842;0.166;2023-09-19T11:56:43;19.42;;;4.45;;
15629;SDS011;7914;50.842;0.166;2023-09-19T11:59:22;20.55;;;4.53;;
15629;SDS011;7914;50.842;0.166;2023-09-19T12:01:52;19.38;;;4.25;;
15629;SDS011;7914;50.842;0.166;2023-09-19T12:04:40;20.83;;;4.32;;
15629;SDS011;7914;50.842;0.166;2023-09-19T12:07:12;16.98;;;5.70;;
15629;SDS011;7914;50.842;0.166;2023-09-19T12:12:33;19.80;;;5.50;;
15629;SDS011;7914;50.842;0.166;2023-09-19T12:14:59;25.85;;;4.63;;
15629;SDS011;7914;50.842;0.166;2023-09-19T12:17:37;17.90;;;4.50;;
15629;SDS011;7914;50.842;0.166;2023-09-19T12:20:06;16.27;;;4.43;;
15629;SDS011;7914;50.842;0.166;2023-09-19T12:22:42;20.42;;;4.57;;
15629;SDS011;7914;50.842;0.166;2023-09-19T12:25:08;17.48;;;5.20;;
15629;SDS011;7914;50.842;0.166;2023-09-19T12:27:46;21.98;;;4.80;;
15629;SDS011;7914;50.842;0.166;2023-09-19T12:30:26;27.08;;;5.35;;
15629;SDS011;7914;50.842;0.166;2023-09-19T12:32:53;18.90;;;5.85;;
15629;SDS011;7914;50.842;0.166;2023-09-19T12:35:27;26.85;;;4.85;;
15629;SDS011;7914;50.842;0.166;2023-09-19T12:37:55;17.63;;;4.43;;
15629;SDS011;7914;50.842;0.166;2023-09-19T12:40:22;23.20;;;4.72;;
15629;SDS011;7914;50.842;0.166;2023-09-19T12:42:52;21.52;;;6.38;;
15629;SDS011;7914;50.842;0.166;2023-09-19T12:45:23;18.02;;;5.20;;
15629;SDS011;7914;50.842;0.166;2023-09-19T12:51:04;20.70;;;4.78;;
15629;SDS011;7914;50.842;0.166;2023-09-19T12:53:33;20.33;;;5.10;;
15629;SDS011;7914;50.842;0.166;2023-09-19T12:56:03;19.67;;;4.28;;
15629;SDS011;7914;50.842;0.166;2023-09-19T12:58:34;21.52;;;4.35;;
15629;SDS011;7914;50.842;0.166;2023-09-19T13:01:00;22.10;;;4.30;;
15629;SDS011;7914;50.842;0.166;2023-09-19T13:03:30;27.15;;;5.30;;
15629;SDS011;7914;50.842;0.166;2023-09-19T13:06:04;18.67;;;4.07;;
15629;SDS011;7914;50.842;0.166;2023-09-19T13:08:30;17.73;;;4.28;;
15629;SDS011;7914;50.842;0.166;2023-09-19T13:11:17;19.77;;;3.85;;
15629;SDS011;7914;50.842;0.166;2023-09-19T13:13:49;13.65;;;3.40;;
15629;SDS011;7914;50.842;0.166;2023-09-19T13:19:47;20.02;;;4.38;;
15629;SDS011;7914;50.842;0.166;2023-09-19T13:25:10;15.30;;;4.10;;
15629;SDS011;7914;50.842;0.166;2023-09-19T13:27:44;15.98;;;4.35;;
15629;SDS011;7914;50.842;0.166;2023-09-19T13:30:17;14.57;;;3.90;;
15629;SDS011;7914;50.842;0.166;2023-09-19T13:32:43;13.95;;;3.95;;
15629;SDS011;7914;50.842;0.166;2023-09-19T13:35:12;21.20;;;6.47;;
15629;SDS011;7914;50.842;0.166;2023-09-19T13:37:40;18.55;;;5.43;;
15629;SDS011;7914;50.842;0.166;2023-09-19T13:40:10;19.92;;;4.32;;
15629;SDS011;7914;50.842;0.166;2023-09-19T13:42:37;24.65;;;5.35;;
15629;SDS011;7914;50.842;0.166;2023-09-19T13:45:05;19.90;;;5.22;;
15629;SDS011;7914;50.842;0.166;2023-09-19T13:47:32;18.70;;;4.53;;
15629;SDS011;7914;50.842;0.166;2023-09-19T13:50:01;20.83;;;4.70;;
15629;SDS011;7914;50.842;0.166;2023-09-19T13:52:29;20.60;;;4.65;;
15629;SDS011;7914;50.842;0.166;2023-09-19T13:54:56;25.85;;;5.93;;
15629;SDS011;7914;50.842;0.166;2023-09-19T13:57:25;21.90;;;4.50;;
15629;SDS011;7914;50.842;0.166;2023-09-19T13:59:52;19.65;;;4.30;;
15629;SDS011;7914;50.842;0.166;2023-09-19T14:02:20;24.42;;;4.68;;
15629;SDS011;7914;50.842;0.166;2023-09-19T14:04:48;21.17;;;5.65;;
15629;SDS011;7914;50.842;0.166;2023-09-19T14:07:14;21.23;;;5.07;;
15629;SDS011;7914;50.842;0.166;2023-09-19T14:09:41;29.27;;;5.45;;
15629;SDS011;7914;50.842;0.166;2023-09-19T14:12:06;19.67;;;4.85;;
15629;SDS011;7914;50.842;0.166;2023-09-19T14:14:32;19.52;;;4.68;;
15629;SDS011;7914;50.842;0.166;2023-09-19T14:16:58;30.73;;;6.38;;
15629;SDS011;7914;50.842;0.166;2023-09-19T14:19:29;23.73;;;5.20;;
15629;SDS011;7914;50.842;0.166;2023-09-19T14:21:54;16.45;;;4.85;;
15629;SDS011;7914;50.842;0.166;2023-09-19T14:24:21;22.90;;;6.38;;
15629;SDS011;7914;50.842;0.166;2023-09-19T14:26:47;27.27;;;5.35;;
15629;SDS011;7914;50.842;0.166;2023-09-19T14:29:14;20.98;;;5.60;;
15629;SDS011;7914;50.842;0.166;2023-09-19T14:31:41;24.40;;;5.75;;
15629;SDS011;7914;50.842;0.166;2023-09-19T14:34:08;19.63;;;4.80;;
15629;SDS011;7914;50.842;0.166;2023-09-19T14:36:36;19.40;;;4.65;;
15629;SDS011;7914;50.842;0.166;2023-09-19T14:39:04;18.85;;;3.83;;
15629;SDS011;7914;50.842;0.166;2023-09-19T14:41:30;23.50;;;6.72;;
15629;SDS011;7914;50.842;0.166;2023-09-19T14:43:56;28.35;;;4.45;;
15629;SDS011;7914;50.842;0.166;2023-09-19T14:46:22;21.92;;;4.53;;
15629;SDS011;7914;50.842;0.166;2023-09-19T14:48:50;20.50;;;4.22;;
15629;SDS011;7914;50.842;0.166;2023-09-19T14:51:16;21.08;;;4.40;;
15629;SDS011;7914;50.842;0.166;2023-09-19T14:53:44;21.40;;;4.63;;
15629;SDS011;7914;50.842;0.166;2023-09-19T14:56:10;18.20;;;5.28;;
15629;SDS011;7914;50.842;0.166;2023-09-19T14:58:36;24.83;;;5.07;;
15629;SDS011;7914;50.842;0.166;2023-09-19T15:03:31;29.00;;;6.43;;
15629;SDS011;7914;50.842;0.166;2023-09-19T15:06:02;23.02;;;5.90;;
15629;SDS011;7914;50.842;0.166;2023-09-19T15:08:32;24.20;;;5.30;;
15629;SDS011;7914;50.842;0.166;2023-09-19T15:11:00;21.83;;;4.82;;
15629;SDS011;7914;50.842;0.166;2023-09-19T15:13:32;25.10;;;5.15;;
15629;SDS011;7914;50.842;0.166;2023-09-19T15:16:07;22.15;;;5.18;;
15629;SDS011;7914;50.842;0.166;2023-09-19T15:18:35;18.25;;;4.30;;
15629;SDS011;7914;50.842;0.166;2023-09-19T15:21:06;21.33;;;4.47;;
15629;SDS011;7914;50.842;0.166;2023-09-19T15:23:32;23.25;;;5.72;;
15629;SDS011;7914;50.842;0.166;2023-09-19T15:26:06;13.73;;;3.70;;
15629;SDS011;7914;50.842;0.166;2023-09-19T15:28:33;28.88;;;5.97;;
15629;SDS011;7914;50.842;0.166;2023-09-19T15:31:02;24.27;;;5.43;;
15629;SDS011;7914;50.842;0.166;2023-09-19T15:33:31;18.05;;;4.35;;
15629;SDS011;7914;50.842;0.166;2023-09-19T15:36:01;17.13;;;4.32;;
15629;SDS011;7914;50.842;0.166;2023-09-19T15:41:21;26.35;;;4.78;;
15629;SDS011;7914;50.842;0.166;2023-09-19T15:43:47;20.50;;;4.50;;
15629;SDS011;7914;50.842;0.166;2023-09-19T15:46:13;16.23;;;4.15;;
15629;SDS011;7914;50.842;0.166;2023-09-19T15:48:40;15.48;;;5.00;;
15629;SDS011;7914;50.842;0.166;2023-09-19T15:51:06;28.52;;;4.68;;
15629;SDS011;7914;50.842;0.166;2023-09-19T15:53:51;22.13;;;4.43;;
15629;SDS011;7914;50.842;0.166;2023-09-19T15:56:18;23.88;;;5.50;;
15629;SDS011;7914;50.842;0.166;2023-09-19T15:58:48;21.73;;;5.72;;
15629;SDS011;7914;50.842;0.166;2023-09-19T16:01:16;31.00;;;7.45;;
15629;SDS011;7914;50.842;0.166;2023-09-19T16:03:43;26.20;;;5.30;;
15629;SDS011;7914;50.842;0.166;2023-09-19T16:06:12;23.52;;;4.85;;
15629;SDS011;7914;50.842;0.166;2023-09-19T16:08:40;15.70;;;4.38;;
15629;SDS011;7914;50.842;0.166;2023-09-19T16:11:06;20.80;;;5.50;;